sensor_id;sensor_type;location;lat;lon;timestamp;P1;durP1;ratioP1;P2;durP2;ratioP2
66874;SDS011;53784;52.630;4.896;2023-02-24T00:01:22;5.60;;;0.93;;
66874;SDS011;53784;52.630;4.896;2023-02-24T00:03:52;6.93;;;1.45;;
66874;SDS011;53784;52.630;4.896;2023-02-24T00:06:20;4.32;;;0.90;;
66874;SDS011;53784;52.630;4.896;2023-02-24T00:08:45;5.73;;;1.00;;
66874;SDS011;53784;52.630;4.896;2023-02-24T00:11:12;7.13;;;1.10;;
66874;SDS011;53784;52.630;4.896;2023-02-24T00:13:37;4.00;;;0.80;;
66874;SDS011;53784;52.630;4.896;2023-02-24T00:16:03;5.82;;;0.70;;
66874;SDS011;53784;52.630;4.896;2023-02-24T00:18:29;10.68;;;1.55;;
66874;SDS011;53784;52.630;4.896;2023-02-24T00:20:56;6.05;;;0.80;;
66874;SDS011;53784;52.630;4.896;2023-02-24T00:23:21;4.95;;;0.90;;
66874;SDS011;53784;52.630;4.896;2023-02-24T00:25:47;7.05;;;1.00;;
66874;SDS011;53784;52.630;4.896;2023-02-24T00:28:13;3.95;;;1.10;;
66874;SDS011;53784;52.630;4.896;2023-02-24T00:30:38;6.88;;;1.17;;
66874;SDS011;53784;52.630;4.896;2023-02-24T00:33:03;7.53;;;0.90;;
66874;SDS011;53784;52.630;4.896;2023-02-24T00:35:30;5.88;;;0.80;;
66874;SDS011;53784;52.630;4.896;2023-02-24T00:37:56;7.70;;;1.02;;
66874;SDS011;53784;52.630;4.896;2023-02-24T00:40:26;5.78;;;0.82;;
66874;SDS011;53784;52.630;4.896;2023-02-24T00:42:54;8.27;;;0.90;;
66874;SDS011;53784;52.630;4.896;2023-02-24T00:45:19;3.83;;;0.83;;
66874;SDS011;53784;52.630;4.896;2023-02-24T00:47:44;5.97;;;0.70;;
66874;SDS011;53784;52.630;4.896;2023-02-24T00:50:09;5.13;;;0.90;;
66874;SDS011;53784;52.630;4.896;2023-02-24T00:52:35;7.30;;;0.90;;
66874;SDS011;53784;52.630;4.896;2023-02-24T00:55:00;5.07;;;0.95;;
66874;SDS011;53784;52.630;4.896;2023-02-24T00:57:26;5.95;;;0.95;;
66874;SDS011;53784;52.630;4.896;2023-02-24T00:59:51;4.97;;;0.90;;
66874;SDS011;53784;52.630;4.896;2023-02-24T01:02:21;4.93;;;0.88;;
66874;SDS011;53784;52.630;4.896;2023-02-24T01:04:46;6.43;;;0.90;;
66874;SDS011;53784;52.630;4.896;2023-02-24T01:07:13;6.93;;;0.90;;
66874;SDS011;53784;52.630;4.896;2023-02-24T01:09:39;6.27;;;1.07;;
66874;SDS011;53784;52.630;4.896;2023-02-24T01:12:09;5.72;;;0.77;;
66874;SDS011;53784;52.630;4.896;2023-02-24T01:14:53;7.40;;;0.80;;
66874;SDS011;53784;52.630;4.896;2023-02-24T01:17:18;6.63;;;1.00;;
66874;SDS011;53784;52.630;4.896;2023-02-24T01:19:44;4.43;;;0.80;;
66874;SDS011;53784;52.630;4.896;2023-02-24T01:22:12;6.93;;;1.02;;
66874;SDS011;53784;52.630;4.896;2023-02-24T01:24:40;6.47;;;0.90;;
66874;SDS011;53784;52.630;4.896;2023-02-24T01:27:05;5.25;;;0.82;;
66874;SDS011;53784;52.630;4.896;2023-02-24T01:29:31;5.38;;;0.90;;
66874;SDS011;53784;52.630;4.896;2023-02-24T01:31:56;5.72;;;0.77;;
66874;SDS011;53784;52.630;4.896;2023-02-24T01:34:22;5.22;;;0.80;;
66874;SDS011;53784;52.630;4.896;2023-02-24T01:36:48;6.68;;;1.00;;
66874;SDS011;53784;52.630;4.896;2023-02-24T01:39:13;5.03;;;0.90;;
66874;SDS011;53784;52.630;4.896;2023-02-24T01:41:39;9.45;;;1.08;;
66874;SDS011;53784;52.630;4.896;2023-02-24T01:44:06;7.40;;;1.00;;
66874;SDS011;53784;52.630;4.896;2023-02-24T01:46:33;8.20;;;1.10;;
66874;SDS011;53784;52.630;4.896;2023-02-24T01:49:04;8.18;;;1.17;;
66874;SDS011;53784;52.630;4.896;2023-02-24T01:51:33;13.50;;;1.10;;
66874;SDS011;53784;52.630;4.896;2023-02-24T01:53:59;8.93;;;1.10;;
66874;SDS011;53784;52.630;4.896;2023-02-24T01:56:24;6.45;;;0.93;;
66874;SDS011;53784;52.630;4.896;2023-02-24T01:58:51;9.32;;;1.33;;
66874;SDS011;53784;52.630;4.896;2023-02-24T02:01:16;4.78;;;1.10;;
66874;SDS011;53784;52.630;4.896;2023-02-24T02:03:44;4.03;;;0.75;;
66874;SDS011;53784;52.630;4.896;2023-02-24T02:06:10;6.40;;;0.70;;
66874;SDS011;53784;52.630;4.896;2023-02-24T02:08:38;4.82;;;0.85;;
66874;SDS011;53784;52.630;4.896;2023-02-24T02:11:08;4.85;;;1.20;;
66874;SDS011;53784;52.630;4.896;2023-02-24T02:13:34;6.18;;;0.90;;
66874;SDS011;53784;52.630;4.896;2023-02-24T02:18:30;4.32;;;0.80;;
66874;SDS011;53784;52.630;4.896;2023-02-24T02:21:04;4.85;;;0.70;;
66874;SDS011;53784;52.630;4.896;2023-02-24T02:39:30;3.80;;;0.70;;
66874;SDS011;53784;52.630;4.896;2023-02-24T02:44:31;6.07;;;0.95;;
66874;SDS011;53784;52.630;4.896;2023-02-24T02:47:01;4.82;;;0.75;;
66874;SDS011;53784;52.630;4.896;2023-02-24T02:49:31;5.30;;;0.90;;
66874;SDS011;53784;52.630;4.896;2023-02-24T02:51:59;6.15;;;0.90;;
66874;SDS011;53784;52.630;4.896;2023-02-24T02:54:38;5.75;;;0.90;;
66874;SDS011;53784;52.630;4.896;2023-02-24T02:57:08;4.10;;;0.70;;
66874;SDS011;53784;52.630;4.896;2023-02-24T02:59:36;5.50;;;0.88;;
66874;SDS011;53784;52.630;4.896;2023-02-24T03:02:04;6.32;;;0.90;;
66874;SDS011;53784;52.630;4.896;2023-02-24T03:04:41;5.50;;;0.80;;
66874;SDS011;53784;52.630;4.896;2023-02-24T03:07:07;4.25;;;0.70;;
66874;SDS011;53784;52.630;4.896;2023-02-24T03:09:35;6.15;;;1.00;;
66874;SDS011;53784;52.630;4.896;2023-02-24T03:12:07;3.42;;;0.70;;
66874;SDS011;53784;52.630;4.896;2023-02-24T03:14:35;3.92;;;0.70;;
66874;SDS011;53784;52.630;4.896;2023-02-24T03:17:07;3.38;;;0.80;;
66874;SDS011;53784;52.630;4.896;2023-02-24T03:19:34;6.00;;;0.80;;
66874;SDS011;53784;52.630;4.896;2023-02-24T03:22:18;5.53;;;0.70;;
66874;SDS011;53784;52.630;4.896;2023-02-24T03:24:45;3.88;;;0.70;;
66874;SDS011;53784;52.630;4.896;2023-02-24T03:27:30;5.80;;;0.80;;
66874;SDS011;53784;52.630;4.896;2023-02-24T03:30:02;7.50;;;1.00;;
66874;SDS011;53784;52.630;4.896;2023-02-24T03:32:35;6.68;;;0.95;;
66874;SDS011;53784;52.630;4.896;2023-02-24T03:35:12;6.75;;;0.80;;
66874;SDS011;53784;52.630;4.896;2023-02-24T03:37:40;7.30;;;1.17;;
66874;SDS011;53784;52.630;4.896;2023-02-24T03:40:08;6.07;;;0.90;;
66874;SDS011;53784;52.630;4.896;2023-02-24T03:42:57;9.90;;;0.90;;
66874;SDS011;53784;52.630;4.896;2023-02-24T03:45:29;7.53;;;1.00;;
66874;SDS011;53784;52.630;4.896;2023-02-24T03:47:55;4.13;;;0.70;;
66874;SDS011;53784;52.630;4.896;2023-02-24T03:50:20;6.77;;;1.13;;
66874;SDS011;53784;52.630;4.896;2023-02-24T03:55:54;9.88;;;1.15;;
66874;SDS011;53784;52.630;4.896;2023-02-24T04:06:10;8.25;;;1.20;;
66874;SDS011;53784;52.630;4.896;2023-02-24T04:08:39;5.13;;;1.20;;
66874;SDS011;53784;52.630;4.896;2023-02-24T04:11:11;8.82;;;1.60;;
66874;SDS011;53784;52.630;4.896;2023-02-24T04:13:40;8.02;;;1.10;;
66874;SDS011;53784;52.630;4.896;2023-02-24T04:16:09;5.28;;;0.93;;
66874;SDS011;53784;52.630;4.896;2023-02-24T04:18:40;10.35;;;1.40;;
66874;SDS011;53784;52.630;4.896;2023-02-24T04:21:06;8.63;;;1.20;;
66874;SDS011;53784;52.630;4.896;2023-02-24T04:23:32;7.88;;;1.60;;
66874;SDS011;53784;52.630;4.896;2023-02-24T04:26:02;11.87;;;1.60;;
66874;SDS011;53784;52.630;4.896;2023-02-24T04:28:27;7.40;;;1.67;;
66874;SDS011;53784;52.630;4.896;2023-02-24T04:30:54;8.70;;;1.50;;
66874;SDS011;53784;52.630;4.896;2023-02-24T04:33:22;11.30;;;2.00;;
66874;SDS011;53784;52.630;4.896;2023-02-24T04:35:48;8.00;;;1.83;;
66874;SDS011;53784;52.630;4.896;2023-02-24T04:38:15;11.25;;;2.45;;
66874;SDS011;53784;52.630;4.896;2023-02-24T04:40:40;11.15;;;2.05;;
66874;SDS011;53784;52.630;4.896;2023-02-24T04:43:06;10.38;;;2.15;;
66874;SDS011;53784;52.630;4.896;2023-02-24T04:45:32;7.57;;;2.15;;
66874;SDS011;53784;52.630;4.896;2023-02-24T04:47:58;8.75;;;2.30;;
66874;SDS011;53784;52.630;4.896;2023-02-24T04:50:29;11.68;;;2.28;;
66874;SDS011;53784;52.630;4.896;2023-02-24T04:52:55;11.23;;;2.17;;
66874;SDS011;53784;52.630;4.896;2023-02-24T04:55:22;10.98;;;2.25;;
66874;SDS011;53784;52.630;4.896;2023-02-24T04:57:48;12.35;;;2.67;;
66874;SDS011;53784;52.630;4.896;2023-02-24T05:00:16;6.38;;;1.90;;
66874;SDS011;53784;52.630;4.896;2023-02-24T05:02:47;11.00;;;1.98;;
66874;SDS011;53784;52.630;4.896;2023-02-24T05:05:12;12.20;;;2.00;;
66874;SDS011;53784;52.630;4.896;2023-02-24T05:07:38;11.15;;;2.30;;
66874;SDS011;53784;52.630;4.896;2023-02-24T05:10:03;8.95;;;1.90;;
66874;SDS011;53784;52.630;4.896;2023-02-24T05:12:30;9.70;;;1.83;;
66874;SDS011;53784;52.630;4.896;2023-02-24T05:14:55;11.93;;;2.03;;
66874;SDS011;53784;52.630;4.896;2023-02-24T05:17:21;10.15;;;1.80;;
66874;SDS011;53784;52.630;4.896;2023-02-24T05:19:46;9.50;;;1.90;;
66874;SDS011;53784;52.630;4.896;2023-02-24T05:22:31;10.93;;;2.08;;
66874;SDS011;53784;52.630;4.896;2023-02-24T05:24:57;8.98;;;2.13;;
66874;SDS011;53784;52.630;4.896;2023-02-24T05:27:22;8.57;;;2.00;;
66874;SDS011;53784;52.630;4.896;2023-02-24T05:29:47;9.50;;;1.67;;
66874;SDS011;53784;52.630;4.896;2023-02-24T05:32:12;8.77;;;1.80;;
66874;SDS011;53784;52.630;4.896;2023-02-24T05:34:40;8.77;;;1.70;;
66874;SDS011;53784;52.630;4.896;2023-02-24T05:37:06;9.55;;;1.88;;
66874;SDS011;53784;52.630;4.896;2023-02-24T05:39:34;5.78;;;1.67;;
66874;SDS011;53784;52.630;4.896;2023-02-24T05:41:59;11.20;;;2.17;;
66874;SDS011;53784;52.630;4.896;2023-02-24T05:44:36;13.43;;;1.73;;
66874;SDS011;53784;52.630;4.896;2023-02-24T05:47:01;13.63;;;1.73;;
66874;SDS011;53784;52.630;4.896;2023-02-24T05:49:30;9.90;;;2.08;;
66874;SDS011;53784;52.630;4.896;2023-02-24T05:51:58;8.68;;;1.67;;
66874;SDS011;53784;52.630;4.896;2023-02-24T05:56:52;8.70;;;1.63;;
66874;SDS011;53784;52.630;4.896;2023-02-24T05:59:20;12.35;;;1.80;;
66874;SDS011;53784;52.630;4.896;2023-02-24T06:01:46;9.70;;;1.53;;
66874;SDS011;53784;52.630;4.896;2023-02-24T06:04:12;10.20;;;1.77;;
66874;SDS011;53784;52.630;4.896;2023-02-24T06:06:46;11.30;;;1.50;;
66874;SDS011;53784;52.630;4.896;2023-02-24T06:11:41;9.75;;;1.67;;
66874;SDS011;53784;52.630;4.896;2023-02-24T06:14:07;11.32;;;1.67;;
66874;SDS011;53784;52.630;4.896;2023-02-24T06:16:33;11.55;;;2.03;;
66874;SDS011;53784;52.630;4.896;2023-02-24T06:18:59;8.68;;;1.65;;
66874;SDS011;53784;52.630;4.896;2023-02-24T06:21:24;12.15;;;1.90;;
66874;SDS011;53784;52.630;4.896;2023-02-24T06:23:53;10.25;;;1.80;;
66874;SDS011;53784;52.630;4.896;2023-02-24T06:26:18;8.57;;;1.47;;
66874;SDS011;53784;52.630;4.896;2023-02-24T06:28:51;11.37;;;1.80;;
66874;SDS011;53784;52.630;4.896;2023-02-24T06:31:17;10.93;;;1.85;;
66874;SDS011;53784;52.630;4.896;2023-02-24T06:33:45;11.43;;;1.90;;
66874;SDS011;53784;52.630;4.896;2023-02-24T06:36:10;10.90;;;1.83;;
66874;SDS011;53784;52.630;4.896;2023-02-24T06:38:38;7.18;;;1.63;;
66874;SDS011;53784;52.630;4.896;2023-02-24T06:41:03;9.15;;;1.90;;
66874;SDS011;53784;52.630;4.896;2023-02-24T06:43:34;8.85;;;1.75;;
66874;SDS011;53784;52.630;4.896;2023-02-24T06:46:00;11.95;;;2.40;;
66874;SDS011;53784;52.630;4.896;2023-02-24T06:48:26;13.40;;;1.93;;
66874;SDS011;53784;52.630;4.896;2023-02-24T06:50:53;13.38;;;1.85;;
66874;SDS011;53784;52.630;4.896;2023-02-24T06:53:19;13.18;;;1.75;;
66874;SDS011;53784;52.630;4.896;2023-02-24T06:55:45;17.15;;;2.33;;
66874;SDS011;53784;52.630;4.896;2023-02-24T06:58:14;17.10;;;2.35;;
66874;SDS011;53784;52.630;4.896;2023-02-24T07:00:40;12.38;;;2.00;;
66874;SDS011;53784;52.630;4.896;2023-02-24T07:03:16;15.65;;;2.05;;
66874;SDS011;53784;52.630;4.896;2023-02-24T07:08:07;17.25;;;2.35;;
66874;SDS011;53784;52.630;4.896;2023-02-24T07:10:32;11.73;;;2.10;;
66874;SDS011;53784;52.630;4.896;2023-02-24T07:12:59;12.40;;;2.30;;
66874;SDS011;53784;52.630;4.896;2023-02-24T07:15:24;13.85;;;2.15;;
66874;SDS011;53784;52.630;4.896;2023-02-24T07:17:52;10.93;;;2.10;;
66874;SDS011;53784;52.630;4.896;2023-02-24T07:20:18;11.30;;;1.73;;
66874;SDS011;53784;52.630;4.896;2023-02-24T07:22:49;10.50;;;1.80;;
66874;SDS011;53784;52.630;4.896;2023-02-24T07:25:14;11.75;;;1.90;;
66874;SDS011;53784;52.630;4.896;2023-02-24T07:30:23;14.13;;;2.03;;
66874;SDS011;53784;52.630;4.896;2023-02-24T07:32:49;10.32;;;2.00;;
66874;SDS011;53784;52.630;4.896;2023-02-24T07:35:19;11.80;;;2.05;;
66874;SDS011;53784;52.630;4.896;2023-02-24T07:37:44;9.05;;;1.73;;
66874;SDS011;53784;52.630;4.896;2023-02-24T07:40:12;9.52;;;1.52;;
66874;SDS011;53784;52.630;4.896;2023-02-24T07:42:41;15.27;;;2.20;;
66874;SDS011;53784;52.630;4.896;2023-02-24T07:45:06;13.07;;;1.80;;
66874;SDS011;53784;52.630;4.896;2023-02-24T07:47:31;12.40;;;2.22;;
66874;SDS011;53784;52.630;4.896;2023-02-24T07:49:57;12.65;;;1.98;;
66874;SDS011;53784;52.630;4.896;2023-02-24T07:52:24;12.88;;;2.05;;
66874;SDS011;53784;52.630;4.896;2023-02-24T07:54:50;13.30;;;1.77;;
66874;SDS011;53784;52.630;4.896;2023-02-24T07:57:16;14.90;;;2.25;;
66874;SDS011;53784;52.630;4.896;2023-02-24T07:59:42;12.43;;;2.20;;
66874;SDS011;53784;52.630;4.896;2023-02-24T08:02:11;15.85;;;2.03;;
66874;SDS011;53784;52.630;4.896;2023-02-24T08:04:37;14.57;;;2.15;;
66874;SDS011;53784;52.630;4.896;2023-02-24T08:07:05;13.07;;;2.00;;
66874;SDS011;53784;52.630;4.896;2023-02-24T08:09:38;14.43;;;2.28;;
66874;SDS011;53784;52.630;4.896;2023-02-24T08:12:15;16.77;;;2.42;;
66874;SDS011;53784;52.630;4.896;2023-02-24T08:14:41;11.00;;;2.33;;
66874;SDS011;53784;52.630;4.896;2023-02-24T08:17:10;11.40;;;2.58;;
66874;SDS011;53784;52.630;4.896;2023-02-24T08:19:36;15.18;;;2.83;;
66874;SDS011;53784;52.630;4.896;2023-02-24T08:22:05;13.65;;;3.28;;
66874;SDS011;53784;52.630;4.896;2023-02-24T08:25:04;13.30;;;3.13;;
66874;SDS011;53784;52.630;4.896;2023-02-24T08:27:32;14.85;;;3.05;;
66874;SDS011;53784;52.630;4.896;2023-02-24T08:29:58;12.90;;;3.13;;
66874;SDS011;53784;52.630;4.896;2023-02-24T08:32:25;13.32;;;3.20;;
66874;SDS011;53784;52.630;4.896;2023-02-24T08:34:51;12.18;;;3.22;;
66874;SDS011;53784;52.630;4.896;2023-02-24T08:37:26;11.15;;;3.67;;
66874;SDS011;53784;52.630;4.896;2023-02-24T08:39:52;16.50;;;4.28;;
66874;SDS011;53784;52.630;4.896;2023-02-24T08:42:20;14.38;;;4.28;;
66874;SDS011;53784;52.630;4.896;2023-02-24T08:44:55;17.65;;;3.97;;
66874;SDS011;53784;52.630;4.896;2023-02-24T08:47:22;13.07;;;4.07;;
66874;SDS011;53784;52.630;4.896;2023-02-24T08:49:54;14.27;;;4.65;;
66874;SDS011;53784;52.630;4.896;2023-02-24T08:52:20;12.80;;;4.30;;
66874;SDS011;53784;52.630;4.896;2023-02-24T08:54:45;15.98;;;4.80;;
66874;SDS011;53784;52.630;4.896;2023-02-24T08:57:13;15.77;;;4.97;;
66874;SDS011;53784;52.630;4.896;2023-02-24T08:59:43;15.82;;;5.00;;
66874;SDS011;53784;52.630;4.896;2023-02-24T09:02:18;17.75;;;5.80;;
66874;SDS011;53784;52.630;4.896;2023-02-24T09:04:49;14.57;;;5.43;;
66874;SDS011;53784;52.630;4.896;2023-02-24T09:07:37;18.20;;;5.68;;
66874;SDS011;53784;52.630;4.896;2023-02-24T09:10:01;18.25;;;5.80;;
66874;SDS011;53784;52.630;4.896;2023-02-24T09:12:28;15.60;;;6.00;;
66874;SDS011;53784;52.630;4.896;2023-02-24T09:14:54;18.83;;;6.03;;
66874;SDS011;53784;52.630;4.896;2023-02-24T09:17:20;17.05;;;5.45;;
66874;SDS011;53784;52.630;4.896;2023-02-24T09:20:03;15.68;;;5.70;;
66874;SDS011;53784;52.630;4.896;2023-02-24T09:23:07;18.73;;;6.20;;
66874;SDS011;53784;52.630;4.896;2023-02-24T09:25:38;16.80;;;5.50;;
66874;SDS011;53784;52.630;4.896;2023-02-24T09:28:26;19.17;;;5.82;;
66874;SDS011;53784;52.630;4.896;2023-02-24T09:30:52;13.30;;;5.40;;
66874;SDS011;53784;52.630;4.896;2023-02-24T09:33:19;11.95;;;5.60;;
66874;SDS011;53784;52.630;4.896;2023-02-24T09:35:45;15.20;;;5.35;;
66874;SDS011;53784;52.630;4.896;2023-02-24T09:38:12;13.95;;;5.00;;
66874;SDS011;53784;52.630;4.896;2023-02-24T09:40:40;11.90;;;5.20;;
66874;SDS011;53784;52.630;4.896;2023-02-24T09:43:12;13.50;;;5.22;;
66874;SDS011;53784;52.630;4.896;2023-02-24T09:48:30;18.25;;;5.72;;
66874;SDS011;53784;52.630;4.896;2023-02-24T09:50:57;13.00;;;4.90;;
66874;SDS011;53784;52.630;4.896;2023-02-24T09:53:27;12.93;;;5.03;;
66874;SDS011;53784;52.630;4.896;2023-02-24T09:55:58;19.33;;;5.03;;
66874;SDS011;53784;52.630;4.896;2023-02-24T09:58:43;11.10;;;4.00;;
66874;SDS011;53784;52.630;4.896;2023-02-24T10:06:28;12.10;;;3.05;;
66874;SDS011;53784;52.630;4.896;2023-02-24T10:09:08;13.85;;;2.92;;
66874;SDS011;53784;52.630;4.896;2023-02-24T10:11:38;14.00;;;3.00;;
66874;SDS011;53784;52.630;4.896;2023-02-24T10:14:04;12.77;;;2.40;;
66874;SDS011;53784;52.630;4.896;2023-02-24T10:16:31;16.75;;;2.63;;
66874;SDS011;53784;52.630;4.896;2023-02-24T10:22:17;13.43;;;2.08;;
66874;SDS011;53784;52.630;4.896;2023-02-24T10:24:52;11.48;;;2.28;;
66874;SDS011;53784;52.630;4.896;2023-02-24T10:30:31;12.20;;;2.17;;
66874;SDS011;53784;52.630;4.896;2023-02-24T10:33:05;14.88;;;2.00;;
66874;SDS011;53784;52.630;4.896;2023-02-24T10:38:02;14.50;;;2.88;;
66874;SDS011;53784;52.630;4.896;2023-02-24T10:40:31;14.77;;;2.20;;
66874;SDS011;53784;52.630;4.896;2023-02-24T10:43:14;15.25;;;2.95;;
66874;SDS011;53784;52.630;4.896;2023-02-24T10:45:41;21.25;;;3.20;;
66874;SDS011;53784;52.630;4.896;2023-02-24T10:48:09;14.35;;;2.50;;
66874;SDS011;53784;52.630;4.896;2023-02-24T10:50:40;18.38;;;3.25;;
66874;SDS011;53784;52.630;4.896;2023-02-24T10:53:10;17.65;;;3.67;;
66874;SDS011;53784;52.630;4.896;2023-02-24T10:55:50;14.63;;;2.95;;
66874;SDS011;53784;52.630;4.896;2023-02-24T10:58:32;15.73;;;3.38;;
66874;SDS011;53784;52.630;4.896;2023-02-24T11:01:23;17.60;;;3.08;;
66874;SDS011;53784;52.630;4.896;2023-02-24T11:04:04;14.82;;;2.80;;
66874;SDS011;53784;52.630;4.896;2023-02-24T11:06:48;17.83;;;3.00;;
66874;SDS011;53784;52.630;4.896;2023-02-24T11:09:20;24.02;;;3.88;;
66874;SDS011;53784;52.630;4.896;2023-02-24T11:11:51;21.67;;;3.72;;
66874;SDS011;53784;52.630;4.896;2023-02-24T11:14:37;20.15;;;3.28;;
66874;SDS011;53784;52.630;4.896;2023-02-24T11:17:22;18.95;;;3.20;;
66874;SDS011;53784;52.630;4.896;2023-02-24T11:19:57;19.73;;;3.75;;
66874;SDS011;53784;52.630;4.896;2023-02-24T11:22:29;19.17;;;3.30;;
66874;SDS011;53784;52.630;4.896;2023-02-24T11:24:55;18.58;;;3.22;;
66874;SDS011;53784;52.630;4.896;2023-02-24T11:27:21;19.77;;;2.80;;
66874;SDS011;53784;52.630;4.896;2023-02-24T11:35:17;21.33;;;3.35;;
66874;SDS011;53784;52.630;4.896;2023-02-24T11:37:45;16.95;;;2.70;;
66874;SDS011;53784;52.630;4.896;2023-02-24T11:40:29;16.17;;;2.92;;
66874;SDS011;53784;52.630;4.896;2023-02-24T11:43:00;18.25;;;3.10;;
66874;SDS011;53784;52.630;4.896;2023-02-24T11:47:55;23.30;;;3.25;;
66874;SDS011;53784;52.630;4.896;2023-02-24T11:50:29;18.25;;;3.20;;
66874;SDS011;53784;52.630;4.896;2023-02-24T11:52:56;21.60;;;3.35;;
66874;SDS011;53784;52.630;4.896;2023-02-24T11:55:28;22.35;;;3.63;;
66874;SDS011;53784;52.630;4.896;2023-02-24T11:57:58;23.40;;;3.22;;
66874;SDS011;53784;52.630;4.896;2023-02-24T12:00:27;18.92;;;3.15;;
66874;SDS011;53784;52.630;4.896;2023-02-24T12:03:16;17.38;;;3.08;;
66874;SDS011;53784;52.630;4.896;2023-02-24T12:05:45;16.80;;;2.85;;
66874;SDS011;53784;52.630;4.896;2023-02-24T12:08:21;15.23;;;2.88;;
66874;SDS011;53784;52.630;4.896;2023-02-24T12:13:39;16.63;;;2.75;;
66874;SDS011;53784;52.630;4.896;2023-02-24T12:16:13;17.52;;;3.38;;
66874;SDS011;53784;52.630;4.896;2023-02-24T12:21:14;19.00;;;3.03;;
66874;SDS011;53784;52.630;4.896;2023-02-24T12:23:42;17.73;;;2.95;;
66874;SDS011;53784;52.630;4.896;2023-02-24T12:31:26;11.85;;;2.38;;
66874;SDS011;53784;52.630;4.896;2023-02-24T12:38:58;9.82;;;1.73;;
66874;SDS011;53784;52.630;4.896;2023-02-24T12:41:46;10.23;;;2.22;;
66874;SDS011;53784;52.630;4.896;2023-02-24T12:47:15;11.63;;;1.92;;
66874;SDS011;53784;52.630;4.896;2023-02-24T12:52:10;12.20;;;2.30;;
66874;SDS011;53784;52.630;4.896;2023-02-24T12:54:59;11.85;;;2.30;;
66874;SDS011;53784;52.630;4.896;2023-02-24T12:59:53;14.50;;;2.33;;
66874;SDS011;53784;52.630;4.896;2023-02-24T13:14:59;10.77;;;1.50;;
66874;SDS011;53784;52.630;4.896;2023-02-24T13:17:25;10.77;;;1.63;;
66874;SDS011;53784;52.630;4.896;2023-02-24T13:19:53;7.65;;;1.42;;
66874;SDS011;53784;52.630;4.896;2023-02-24T13:22:20;6.75;;;1.10;;
66874;SDS011;53784;52.630;4.896;2023-02-24T13:29:45;5.25;;;1.08;;
66874;SDS011;53784;52.630;4.896;2023-02-24T13:32:24;6.45;;;0.90;;
66874;SDS011;53784;52.630;4.896;2023-02-24T13:34:50;5.38;;;1.00;;
66874;SDS011;53784;52.630;4.896;2023-02-24T13:37:25;8.60;;;1.38;;
66874;SDS011;53784;52.630;4.896;2023-02-24T13:39:50;8.18;;;1.27;;
66874;SDS011;53784;52.630;4.896;2023-02-24T13:44:46;5.68;;;1.50;;
66874;SDS011;53784;52.630;4.896;2023-02-24T13:49:51;8.18;;;1.50;;
66874;SDS011;53784;52.630;4.896;2023-02-24T13:52:29;7.88;;;1.10;;
66874;SDS011;53784;52.630;4.896;2023-02-24T13:55:08;7.20;;;1.30;;
66874;SDS011;53784;52.630;4.896;2023-02-24T14:00:16;7.05;;;1.52;;
66874;SDS011;53784;52.630;4.896;2023-02-24T14:02:46;7.32;;;1.58;;
66874;SDS011;53784;52.630;4.896;2023-02-24T14:05:26;8.95;;;1.50;;
66874;SDS011;53784;52.630;4.896;2023-02-24T14:07:51;6.63;;;1.20;;
66874;SDS011;53784;52.630;4.896;2023-02-24T14:10:21;8.50;;;1.60;;
66874;SDS011;53784;52.630;4.896;2023-02-24T14:12:49;7.28;;;1.70;;
66874;SDS011;53784;52.630;4.896;2023-02-24T14:15:17;12.13;;;2.78;;
66874;SDS011;53784;52.630;4.896;2023-02-24T14:17:52;10.20;;;1.85;;
66874;SDS011;53784;52.630;4.896;2023-02-24T14:20:19;10.90;;;2.28;;
66874;SDS011;53784;52.630;4.896;2023-02-24T14:22:45;8.73;;;2.08;;
66874;SDS011;53784;52.630;4.896;2023-02-24T14:25:11;11.38;;;2.22;;
66874;SDS011;53784;52.630;4.896;2023-02-24T14:27:36;13.57;;;2.47;;
66874;SDS011;53784;52.630;4.896;2023-02-24T14:30:02;12.85;;;2.20;;
66874;SDS011;53784;52.630;4.896;2023-02-24T14:32:28;11.63;;;1.88;;
66874;SDS011;53784;52.630;4.896;2023-02-24T14:34:53;10.97;;;1.97;;
66874;SDS011;53784;52.630;4.896;2023-02-24T14:37:23;7.05;;;1.73;;
66874;SDS011;53784;52.630;4.896;2023-02-24T14:39:51;7.72;;;1.80;;
66874;SDS011;53784;52.630;4.896;2023-02-24T14:42:17;7.85;;;1.75;;
66874;SDS011;53784;52.630;4.896;2023-02-24T14:44:50;8.80;;;1.50;;
66874;SDS011;53784;52.630;4.896;2023-02-24T14:47:16;7.78;;;1.48;;
66874;SDS011;53784;52.630;4.896;2023-02-24T14:49:50;9.73;;;1.65;;
66874;SDS011;53784;52.630;4.896;2023-02-24T14:57:09;6.53;;;1.30;;
66874;SDS011;53784;52.630;4.896;2023-02-24T14:59:36;12.10;;;1.50;;
66874;SDS011;53784;52.630;4.896;2023-02-24T15:02:03;11.65;;;1.70;;
66874;SDS011;53784;52.630;4.896;2023-02-24T15:04:33;11.02;;;1.48;;
66874;SDS011;53784;52.630;4.896;2023-02-24T15:07:00;11.23;;;1.50;;
66874;SDS011;53784;52.630;4.896;2023-02-24T15:09:28;8.38;;;1.40;;
66874;SDS011;53784;52.630;4.896;2023-02-24T15:11:57;11.63;;;1.55;;
66874;SDS011;53784;52.630;4.896;2023-02-24T15:14:27;11.65;;;1.60;;
66874;SDS011;53784;52.630;4.896;2023-02-24T15:16:54;8.68;;;1.30;;
66874;SDS011;53784;52.630;4.896;2023-02-24T15:21:50;8.48;;;1.50;;
66874;SDS011;53784;52.630;4.896;2023-02-24T15:24:16;8.73;;;1.60;;
66874;SDS011;53784;52.630;4.896;2023-02-24T15:26:49;9.15;;;1.45;;
66874;SDS011;53784;52.630;4.896;2023-02-24T15:29:19;10.80;;;1.45;;
66874;SDS011;53784;52.630;4.896;2023-02-24T15:31:48;9.35;;;1.58;;
66874;SDS011;53784;52.630;4.896;2023-02-24T15:34:15;14.68;;;2.28;;
66874;SDS011;53784;52.630;4.896;2023-02-24T15:36:41;11.88;;;2.80;;
66874;SDS011;53784;52.630;4.896;2023-02-24T15:39:07;12.93;;;2.10;;
66874;SDS011;53784;52.630;4.896;2023-02-24T15:41:44;16.60;;;2.03;;
66874;SDS011;53784;52.630;4.896;2023-02-24T15:44:26;10.68;;;1.83;;
66874;SDS011;53784;52.630;4.896;2023-02-24T15:46:52;9.25;;;2.08;;
66874;SDS011;53784;52.630;4.896;2023-02-24T15:49:17;13.00;;;2.13;;
66874;SDS011;53784;52.630;4.896;2023-02-24T15:51:42;14.37;;;2.00;;
66874;SDS011;53784;52.630;4.896;2023-02-24T15:54:42;11.13;;;1.83;;
66874;SDS011;53784;52.630;4.896;2023-02-24T15:57:01;11.38;;;2.40;;
66874;SDS011;53784;52.630;4.896;2023-02-24T15:59:26;13.02;;;1.75;;
66874;SDS011;53784;52.630;4.896;2023-02-24T16:01:52;12.88;;;2.15;;
66874;SDS011;53784;52.630;4.896;2023-02-24T16:04:17;13.05;;;1.60;;
66874;SDS011;53784;52.630;4.896;2023-02-24T16:06:43;11.60;;;1.90;;
66874;SDS011;53784;52.630;4.896;2023-02-24T16:09:13;10.02;;;1.30;;
66874;SDS011;53784;52.630;4.896;2023-02-24T16:11:40;11.18;;;2.40;;
66874;SDS011;53784;52.630;4.896;2023-02-24T16:14:08;14.55;;;2.15;;
66874;SDS011;53784;52.630;4.896;2023-02-24T16:16:33;9.40;;;1.55;;
66874;SDS011;53784;52.630;4.896;2023-02-24T16:18:58;14.27;;;2.20;;
66874;SDS011;53784;52.630;4.896;2023-02-24T16:21:24;10.70;;;1.80;;
66874;SDS011;53784;52.630;4.896;2023-02-24T16:23:49;12.65;;;2.45;;
66874;SDS011;53784;52.630;4.896;2023-02-24T16:26:16;15.38;;;2.15;;
66874;SDS011;53784;52.630;4.896;2023-02-24T16:28:43;14.60;;;2.30;;
66874;SDS011;53784;52.630;4.896;2023-02-24T16:31:08;16.70;;;2.03;;
66874;SDS011;53784;52.630;4.896;2023-02-24T16:33:33;13.97;;;1.90;;
66874;SDS011;53784;52.630;4.896;2023-02-24T16:35:59;7.10;;;1.55;;
66874;SDS011;53784;52.630;4.896;2023-02-24T16:38:24;7.93;;;1.70;;
66874;SDS011;53784;52.630;4.896;2023-02-24T16:40:53;6.70;;;1.15;;
66874;SDS011;53784;52.630;4.896;2023-02-24T16:43:18;6.45;;;1.60;;
66874;SDS011;53784;52.630;4.896;2023-02-24T16:45:43;7.13;;;1.30;;
66874;SDS011;53784;52.630;4.896;2023-02-24T16:48:27;12.90;;;1.60;;
66874;SDS011;53784;52.630;4.896;2023-02-24T16:50:58;10.73;;;2.00;;
66874;SDS011;53784;52.630;4.896;2023-02-24T16:53:24;12.95;;;1.67;;
66874;SDS011;53784;52.630;4.896;2023-02-24T16:55:49;12.38;;;2.70;;